Fairbanks, AK

06:10 AM AKDT die 30o March, anno 2015 (GMT -0800)
AKDOT 14th Avenue @ Eielson Street | | Change Station
CLOSE
Current Station
Personal Weather Stations
Location: Fairbanks, AK
Elevation: 482 ft
Nearby Weather Stations

Elev 482 ft 64.84 °N, 147.71 °W | Updated 47 minutes ago

Clear
Serena
26 °F
Feels Like 26 °F
N
0
Ventus Variabilis Ventus from Magis Auster quam Eurus
Gusts 2.0 mph

Hodie
High -- | Low -- °F
--% Chance of Precip.
Yesterday
High -- | Low -- °F
Precip. -- in
7:14 AM 8:37 PM
Waxing Gibbous, 80% visible
Pressio 29.56 in
Visibilitas 10.0 milia passuum
Clouds Serena
Frigus Venti 26 °F
Frigus in quo Ros apparet 21 °F
Umor 81%
Rainfall in
Snow Depth Not available.
UV 0 out of 12
Pollen Not available.
Air Quality Not available.
Flu Activity Not available.
METAR PAFB 301356Z AUTO 05003KT 10SM CLR M07/M09 A2953 RMK SLP008 T10721094 $ VIA AUTODIAL

More Conditions Fewer Conditions

Pressio 29.56 in
Visibilitas 10.0 milia passuum
Clouds Serena
Frigus Venti 26 °F
Frigus in quo Ros apparet 21 °F
Umor 81%
Rainfall in
Snow Depth Not available.
UV 0 out of 12
Pollen Not available.
Air Quality Not available.
Flu Activity Not available.
METAR PAFB 301356Z AUTO 05003KT 10SM CLR M07/M09 A2953 RMK SLP008 T10721094 $ VIA AUTODIAL

More Conditions Fewer Conditions

10-Day Weather Forecast

Almanac

Astronomy

Mar. 30, 2015 Rise Set
Actual Time
Civil Twilight
Nautical Twilight
Astronomical Twilight
Moon
Length Of Visible Light
Length of Day
Tomorrow will be .
, % of the Moon is Illuminated

Today's Extremes

State Highs State Lows

Community

WunderPhotos

Upload Photos

1,809,502 photos uploaded!

WunderBlogs® & News

Nearby

Air Quality

  Air Quality AQ Index Pollutant
Not available.

Snow Depth

Station Depth Elevation

Earthquake Activity

City Distance Mag. Time & Date
Minimum magnitude displayed is 2.5.

Coastal Water Temperatures

Locus Calor

Stations

Nearby Weather Stations

Station Location Temp Frigus Venti Frigus in quo Ros apparet Umor Ventus Precip. Elev Renovata Type